Somerset, NJ - U.S.A.

40° 30' 13"N, 74° 29' 17"W, Elevation 55 ft.

Friday, July 3, 2015
8:16:00 AM (Eastern)

184th day of the year

Updated and refreshed every 2 minutes. Weather computer in use: Davis Vantage PRO2 Plus


Current Weather:
Yesterday

Current Today's Highs and Lows
Temperature 62.8°F (17.1°C) ↑ 66.9° 12:00 AM
59.6° 6:14 AM
Dew Point 61.5°F (16.4°C) ↑ 64.4° 12:36 AM
58.0° 6:14 AM
Humidity 96% 97% 7:51 AM
91% 12:00 AM
Wind Gust N 11 mph N 11 8:15 AM
S 0 12:00 AM
Wind Speed NNE 5 mph ↑
Light breeze (2)
N 6 8:04 AM
S 0 12:00 AM
Precipitation 0.00" (0.00 mm) 1
Last 24 hours 0.02"
Instantaneous rate 0.00"/hr
Storm total 0.00"
0.00"2 12:00 AM
0.00"2 12:00 AM
Barometer 29.970" (1014.9 mb)
Rising
29.970" 8:13 AM
29.880" 12:00 AM
Wind Chill Gust 62°F (16°C) 67° 12:00 AM
60° 6:14 AM
Wind Chill Avg 63°F (17°C) 67° 12:00 AM
60° 6:14 AM
Heat Index 62°F (16.7°C) 66° 12:00 AM
59° 5:53 AM
Sunshine 86 W/m2
Sunshine minutes 0
86 8:11 AM
0 12:00 AM
UV Index  0.5 0.5 8:04 AM
0.0 12:00 AM
1. Daily total rainfall.
2. Maximum and minimum rainfall are the instantaneous rainfall rates.

'KSOM' METAR REPORT:

METAR KSOM 031216Z AUTO 04004KT 17/16 A2997 RMK AO1 SLP149 T01710164 

Webcam
EBWeather Image

Video - Last 3 Hours

Video - Yesterday

NJ Region Surface Map
NJ Sfc Map

Weather Data from Somerset, NJ

Data generated by WxSolution Version 1.8.7.5, Build 2015.04.24.